createdAt,value
2017-12-27T00:01:43.333Z,0.00
2017-12-27T00:02:42.995Z,0.00
2017-12-27T00:04:36.456Z,0.00
2017-12-27T00:05:35.839Z,0.00
2017-12-27T00:07:28.913Z,0.00
2017-12-27T00:08:29.074Z,0.00
2017-12-27T00:10:22.155Z,0.00
2017-12-27T00:11:22.135Z,0.00
2017-12-27T00:13:15.151Z,0.00
2017-12-27T00:14:15.049Z,0.00
2017-12-27T00:16:08.023Z,0.00
2017-12-27T00:17:07.671Z,0.00
2017-12-27T00:19:01.057Z,0.00
2017-12-27T00:20:00.613Z,0.00
2017-12-27T00:21:55.464Z,0.00
2017-12-27T00:22:55.394Z,0.00
2017-12-27T00:24:48.465Z,0.00
2017-12-27T00:25:48.038Z,0.00
2017-12-27T00:27:41.421Z,0.00
2017-12-27T00:28:40.978Z,0.00
2017-12-27T00:30:34.422Z,0.00
2017-12-27T00:31:33.950Z,0.00
2017-12-27T00:33:27.106Z,0.00
2017-12-27T00:34:27.289Z,0.00
2017-12-27T00:36:21.847Z,0.00
2017-12-27T00:37:21.740Z,0.00
2017-12-27T00:39:14.737Z,0.00
2017-12-27T00:40:14.364Z,0.00
2017-12-27T00:42:08.239Z,0.00
2017-12-27T00:43:07.825Z,0.00
2017-12-27T00:45:01.194Z,0.00
2017-12-27T00:46:01.055Z,0.00
2017-12-27T00:47:54.173Z,0.00
2017-12-27T00:48:53.748Z,0.00
2017-12-27T00:50:47.127Z,0.00
2017-12-27T00:51:46.700Z,0.00
2017-12-27T00:53:40.049Z,0.00
2017-12-27T00:54:39.691Z,0.00
2017-12-27T00:56:33.527Z,0.00
2017-12-27T00:57:33.227Z,0.00
2017-12-27T00:59:26.585Z,0.00
2017-12-27T01:00:26.080Z,0.00
2017-12-27T01:03:19.044Z,0.00
2017-12-27T01:05:12.943Z,0.00
2017-12-27T01:06:12.458Z,0.00
2017-12-27T01:08:05.791Z,0.00
2017-12-27T01:09:05.473Z,0.00
2017-12-27T01:11:00.201Z,0.00
2017-12-27T01:12:00.507Z,0.00
2017-12-27T01:13:53.169Z,0.00
2017-12-27T01:14:52.845Z,0.00
2017-12-27T01:16:46.162Z,0.00
2017-12-27T01:17:45.823Z,0.00
2017-12-27T01:19:39.400Z,0.00
2017-12-27T01:20:38.688Z,0.00
2017-12-27T01:22:33.274Z,0.00
2017-12-27T01:23:33.579Z,0.00
2017-12-27T01:25:26.528Z,0.00
2017-12-27T01:26:26.477Z,0.00
2017-12-27T01:28:19.559Z,0.00
2017-12-27T01:29:19.127Z,0.00
2017-12-27T01:31:14.501Z,0.00
2017-12-27T01:32:12.820Z,0.00
2017-12-27T01:34:06.389Z,0.00
2017-12-27T01:35:05.469Z,0.00
2017-12-27T01:36:59.277Z,0.00
2017-12-27T01:38:00.317Z,0.00
2017-12-27T01:40:04.805Z,0.00
2017-12-27T01:41:03.776Z,0.00
2017-12-27T01:42:58.793Z,0.00
2017-12-27T01:43:57.985Z,0.00
2017-12-27T01:45:53.611Z,0.00
2017-12-27T01:46:50.583Z,0.00
2017-12-27T01:48:44.051Z,0.00
2017-12-27T01:49:43.665Z,0.00
2017-12-27T01:51:36.851Z,0.00
2017-12-27T01:52:36.487Z,0.00
2017-12-27T01:54:29.790Z,0.00
2017-12-27T01:55:29.735Z,0.00
2017-12-27T01:57:24.728Z,0.00
2017-12-27T01:58:23.884Z,0.00
2017-12-27T02:00:17.771Z,0.00
2017-12-27T02:01:17.395Z,0.00
2017-12-27T02:03:12.302Z,0.00
2017-12-27T02:04:12.186Z,0.00
2017-12-27T02:06:05.184Z,0.00
2017-12-27T02:07:04.809Z,0.00
2017-12-27T02:08:58.147Z,0.00
2017-12-27T02:09:58.223Z,0.00
2017-12-27T02:11:50.831Z,0.00
2017-12-27T02:12:50.700Z,0.00
2017-12-27T02:14:44.048Z,0.00
2017-12-27T02:15:43.678Z,0.00
2017-12-27T02:17:36.987Z,0.00
2017-12-27T02:18:36.907Z,0.00
2017-12-27T02:20:31.557Z,0.00
2017-12-27T02:21:31.076Z,0.00
2017-12-27T02:23:24.474Z,0.00
2017-12-27T02:24:24.055Z,0.00
2017-12-27T02:26:17.498Z,0.00
2017-12-27T02:27:17.355Z,0.00
2017-12-27T02:29:10.349Z,0.00
2017-12-27T02:30:09.977Z,0.00
2017-12-27T02:32:03.311Z,0.00
2017-12-27T02:33:02.907Z,0.00
2017-12-27T02:34:56.296Z,0.00
2017-12-27T02:35:55.912Z,0.00
2017-12-27T02:37:49.167Z,0.00
2017-12-27T02:38:48.872Z,0.00
2017-12-27T02:40:43.706Z,0.00
2017-12-27T02:41:43.635Z,0.00
2017-12-27T02:43:36.686Z,0.00
2017-12-27T02:44:36.284Z,0.00
2017-12-27T02:46:29.592Z,0.00
2017-12-27T02:47:29.549Z,0.00
2017-12-27T02:49:22.603Z,0.00
2017-12-27T02:50:22.194Z,0.00
2017-12-27T02:52:15.497Z,0.00
2017-12-27T02:53:15.175Z,0.00
2017-12-27T02:55:08.528Z,0.00
2017-12-27T02:56:08.089Z,0.00
2017-12-27T02:58:03.081Z,0.00
2017-12-27T02:59:02.640Z,0.00
2017-12-27T03:00:55.932Z,0.00
2017-12-27T03:01:55.528Z,0.00
2017-12-27T03:03:48.589Z,0.00
2017-12-27T03:04:48.826Z,0.00
2017-12-27T03:06:41.934Z,0.00
2017-12-27T03:07:41.465Z,0.00
2017-12-27T03:09:36.345Z,0.00
2017-12-27T03:10:36.258Z,0.00
2017-12-27T03:12:29.810Z,0.00
2017-12-27T03:13:29.508Z,0.00
2017-12-27T03:15:24.220Z,0.00
2017-12-27T03:16:24.209Z,0.00
2017-12-27T03:18:17.289Z,0.00
2017-12-27T03:19:16.869Z,0.00
2017-12-27T03:21:10.170Z,0.00
2017-12-27T03:22:09.909Z,0.00
2017-12-27T03:24:04.680Z,0.00
2017-12-27T03:25:04.382Z,0.00
2017-12-27T03:26:57.661Z,0.00
2017-12-27T03:27:57.287Z,0.00
2017-12-27T03:29:51.127Z,0.00
2017-12-27T03:30:50.783Z,0.00
2017-12-27T03:32:45.288Z,0.00
2017-12-27T03:33:45.493Z,0.00
2017-12-27T03:35:38.547Z,0.00
2017-12-27T03:36:38.155Z,0.00
2017-12-27T03:38:31.969Z,0.00
2017-12-27T03:39:31.621Z,0.00
2017-12-27T03:41:24.998Z,0.00
2017-12-27T03:42:24.916Z,0.00
2017-12-27T03:44:17.970Z,0.00
2017-12-27T03:45:17.571Z,0.00
2017-12-27T03:47:10.882Z,0.00
2017-12-27T03:48:10.515Z,0.00
2017-12-27T03:50:04.047Z,0.00
2017-12-27T03:51:04.208Z,0.00
2017-12-27T03:52:58.853Z,0.00
2017-12-27T03:53:58.463Z,0.00
2017-12-27T03:55:51.480Z,0.00
2017-12-27T03:56:51.411Z,0.00
2017-12-27T03:58:46.303Z,0.00
2017-12-27T03:59:45.862Z,0.00
2017-12-27T04:01:39.153Z,0.00
2017-12-27T04:02:38.843Z,0.00
2017-12-27T04:04:32.097Z,0.00
2017-12-27T04:05:31.802Z,0.00
2017-12-27T04:07:25.024Z,0.00
2017-12-27T04:08:24.740Z,0.00
2017-12-27T04:10:18.152Z,0.00
2017-12-27T04:11:17.692Z,0.00
2017-12-27T04:13:11.459Z,0.00
2017-12-27T04:14:11.163Z,0.00
2017-12-27T04:16:04.999Z,0.00
2017-12-27T04:17:04.875Z,0.00
2017-12-27T04:18:57.897Z,0.00
2017-12-27T04:19:57.585Z,0.00
2017-12-27T04:21:51.033Z,0.00
2017-12-27T04:22:50.643Z,0.00
2017-12-27T04:24:44.042Z,0.00
2017-12-27T04:25:43.625Z,0.00
2017-12-27T04:27:38.543Z,0.00
2017-12-27T04:28:38.347Z,0.00
2017-12-27T04:30:31.370Z,0.00
2017-12-27T04:31:31.056Z,0.00
2017-12-27T04:33:24.867Z,0.00
2017-12-27T04:34:24.518Z,0.00
2017-12-27T04:36:17.600Z,0.00
2017-12-27T04:37:17.752Z,0.00
2017-12-27T04:39:10.762Z,0.00
2017-12-27T04:40:10.433Z,0.00
2017-12-27T04:42:03.715Z,0.00
2017-12-27T04:43:03.378Z,0.00
2017-12-27T04:44:56.496Z,0.00
2017-12-27T04:45:56.631Z,0.00
2017-12-27T04:47:50.119Z,0.00
2017-12-27T04:48:49.790Z,0.00
2017-12-27T04:50:43.349Z,0.00
2017-12-27T04:51:43.282Z,0.00
2017-12-27T04:53:36.596Z,0.00
2017-12-27T04:54:36.207Z,0.00
2017-12-27T04:56:29.322Z,0.00
2017-12-27T04:57:29.225Z,0.00
2017-12-27T04:59:23.955Z,0.00
2017-12-27T05:00:23.688Z,0.00
2017-12-27T05:02:16.963Z,0.00
2017-12-27T05:03:16.715Z,0.00
2017-12-27T05:05:09.965Z,0.00
2017-12-27T05:06:09.546Z,0.00
2017-12-27T05:08:04.505Z,0.00
2017-12-27T05:09:04.049Z,0.00
2017-12-27T05:10:57.351Z,0.00
2017-12-27T05:11:57.021Z,0.00
2017-12-27T05:13:50.559Z,0.00
2017-12-27T05:14:50.470Z,0.00
2017-12-27T05:16:45.079Z,0.00
2017-12-27T05:17:44.965Z,0.00
2017-12-27T05:19:38.292Z,0.00
2017-12-27T05:20:37.931Z,0.00
2017-12-27T05:22:32.725Z,0.00
2017-12-27T05:23:32.421Z,0.00
2017-12-27T05:25:25.440Z,0.00
2017-12-27T05:26:25.353Z,0.00
2017-12-27T05:28:18.623Z,0.00
2017-12-27T05:29:18.313Z,0.00
2017-12-27T05:31:11.872Z,0.00
2017-12-27T05:32:11.798Z,0.00
2017-12-27T05:34:06.289Z,0.00
2017-12-27T05:35:06.187Z,0.00
2017-12-27T05:36:59.551Z,0.00
2017-12-27T05:37:59.160Z,0.00
2017-12-27T05:39:52.438Z,0.00
2017-12-27T05:40:52.070Z,0.00
2017-12-27T05:42:46.935Z,0.00
2017-12-27T05:43:46.567Z,0.00
2017-12-27T05:45:39.607Z,0.00
2017-12-27T05:46:39.853Z,0.00
2017-12-27T05:48:32.864Z,0.00
2017-12-27T05:49:32.481Z,0.00
2017-12-27T05:51:25.807Z,0.00
2017-12-27T05:52:25.421Z,0.00
2017-12-27T05:54:18.834Z,0.00
2017-12-27T05:55:18.401Z,0.00
2017-12-27T05:57:11.712Z,0.00
2017-12-27T05:58:11.332Z,0.00
2017-12-27T06:00:04.716Z,0.00
2017-12-27T06:01:04.295Z,0.00
2017-12-27T06:02:57.346Z,0.00
2017-12-27T06:03:57.253Z,0.00
2017-12-27T06:05:51.883Z,0.00
2017-12-27T06:06:51.958Z,0.00
2017-12-27T06:08:44.994Z,0.00
2017-12-27T06:09:44.831Z,0.00
2017-12-27T06:11:38.121Z,0.00
2017-12-27T06:12:37.634Z,0.00
2017-12-27T06:14:30.958Z,0.00
2017-12-27T06:15:30.652Z,0.00
2017-12-27T06:17:23.964Z,0.00
2017-12-27T06:18:23.655Z,0.00
2017-12-27T06:20:29.202Z,0.00
2017-12-27T06:21:28.795Z,0.00
2017-12-27T06:23:21.883Z,0.00
2017-12-27T06:24:22.013Z,0.00
2017-12-27T06:26:16.611Z,0.00
2017-12-27T06:27:16.251Z,0.00
2017-12-27T06:29:09.618Z,0.00
2017-12-27T06:30:09.214Z,0.00
2017-12-27T06:32:02.332Z,0.00
2017-12-27T06:33:02.730Z,0.00
2017-12-27T06:34:57.153Z,0.00
2017-12-27T06:35:56.792Z,0.00
2017-12-27T06:37:50.561Z,4.00
2017-12-27T06:38:50.214Z,4.00
2017-12-27T06:40:43.560Z,0.00
2017-12-27T06:41:43.208Z,4.00
2017-12-27T06:43:38.072Z,8.00
2017-12-27T06:44:37.946Z,4.00
2017-12-27T06:46:31.247Z,8.00
2017-12-27T06:47:31.380Z,12.00
2017-12-27T06:49:25.930Z,12.00
2017-12-27T06:50:25.600Z,16.00
2017-12-27T06:52:19.438Z,20.00
2017-12-27T06:53:19.070Z,24.00
2017-12-27T06:55:12.893Z,32.00
2017-12-27T06:56:12.570Z,36.00
2017-12-27T06:58:07.383Z,48.00
2017-12-27T06:59:07.019Z,52.00
2017-12-27T07:01:00.910Z,68.00
2017-12-27T07:02:00.508Z,76.00
2017-12-27T07:03:55.142Z,92.00
2017-12-27T07:04:54.966Z,104.00
2017-12-27T07:06:48.534Z,128.00
2017-12-27T07:07:48.446Z,140.00
2017-12-27T07:09:42.309Z,164.00
2017-12-27T07:10:41.937Z,176.00
2017-12-27T07:12:36.806Z,216.00
2017-12-27T07:13:36.421Z,244.00
2017-12-27T07:15:29.838Z,300.00
2017-12-27T07:16:29.382Z,316.00
2017-12-27T07:18:22.919Z,344.00
2017-12-27T07:19:23.096Z,364.00
2017-12-27T07:21:16.170Z,412.00
2017-12-27T07:22:15.769Z,440.00
2017-12-27T07:24:09.093Z,496.00
2017-12-27T07:25:08.737Z,524.00
2017-12-27T07:27:02.227Z,572.00
2017-12-27T07:28:03.731Z,592.00
2017-12-27T07:29:55.502Z,628.00
2017-12-27T07:30:55.188Z,648.00
2017-12-27T07:32:50.048Z,688.00
2017-12-27T07:33:49.648Z,708.00
2017-12-27T07:35:43.471Z,752.00
2017-12-27T07:36:43.115Z,776.00
2017-12-27T07:38:36.967Z,820.00
2017-12-27T07:39:36.568Z,848.00
2017-12-27T07:41:31.128Z,936.00
2017-12-27T07:42:31.054Z,1008.00
2017-12-27T07:44:24.359Z,1156.00
2017-12-27T07:45:24.078Z,1236.00
2017-12-27T07:47:17.306Z,1400.00
2017-12-27T07:48:16.974Z,1492.00
2017-12-27T07:50:10.529Z,1696.00
2017-12-27T07:51:10.435Z,1800.00
2017-12-27T07:53:03.725Z,1984.00
2017-12-27T07:54:03.405Z,2068.00
2017-12-27T07:55:56.711Z,2188.00
2017-12-27T07:56:56.372Z,2224.00
2017-12-27T07:58:49.620Z,2228.00
2017-12-27T07:59:49.314Z,2216.00
2017-12-27T08:01:42.655Z,2228.00
2017-12-27T08:02:42.319Z,2256.00
2017-12-27T08:04:35.541Z,2356.00
2017-12-27T08:05:35.211Z,2424.00
2017-12-27T08:07:28.521Z,2556.00
2017-12-27T08:08:28.182Z,2624.00
2017-12-27T08:10:22.973Z,2716.00
2017-12-27T08:11:22.674Z,2736.00
2017-12-27T08:13:16.460Z,2736.00
2017-12-27T08:14:16.129Z,2736.00
2017-12-27T08:16:10.711Z,2776.00
2017-12-27T08:17:10.938Z,2816.00
2017-12-27T08:19:03.883Z,2944.00
2017-12-27T08:20:03.582Z,3024.00
2017-12-27T08:21:56.683Z,3172.00
2017-12-27T08:22:56.522Z,3248.00
2017-12-27T08:24:51.116Z,3400.00
2017-12-27T08:25:51.087Z,3496.00
2017-12-27T08:27:44.322Z,3700.00
2017-12-27T08:28:44.032Z,3824.00
2017-12-27T08:30:37.299Z,4076.00
2017-12-27T08:31:36.958Z,4216.00
2017-12-27T08:33:30.177Z,4540.00
2017-12-27T08:34:29.944Z,4744.00
2017-12-27T08:36:23.715Z,5172.00
2017-12-27T08:37:23.499Z,5420.00
2017-12-27T08:39:16.585Z,5892.00
2017-12-27T08:40:16.316Z,6144.00
2017-12-27T08:42:09.853Z,6624.00
2017-12-27T08:43:09.770Z,6884.00
2017-12-27T08:44:09.714Z,7148.00
2017-12-27T08:45:09.735Z,7420.00
2017-12-27T08:46:09.616Z,7708.00
2017-12-27T08:47:09.614Z,8000.00
2017-12-27T08:48:09.574Z,8284.00
2017-12-27T08:49:09.514Z,8544.00
2017-12-27T08:50:09.496Z,8784.00
2017-12-27T08:51:09.520Z,8980.00
2017-12-27T08:52:09.403Z,9156.00
2017-12-27T08:53:09.328Z,9300.00
2017-12-27T08:54:09.829Z,9412.00
2017-12-27T08:55:09.233Z,9516.00
2017-12-27T08:56:09.217Z,9588.00
2017-12-27T08:57:09.204Z,9648.00
2017-12-27T08:58:11.508Z,9716.00
2017-12-27T08:59:09.058Z,9804.00
2017-12-27T09:01:03.680Z,10104.00
2017-12-27T09:02:03.551Z,10336.00
2017-12-27T09:03:56.572Z,10820.00
2017-12-27T09:04:56.895Z,11060.00
2017-12-27T09:06:50.346Z,11600.00
2017-12-27T09:07:49.969Z,11924.00
2017-12-27T09:09:43.237Z,12516.00
2017-12-27T09:10:42.911Z,12808.00
2017-12-27T09:12:36.227Z,13332.00
2017-12-27T09:13:35.882Z,13588.00
2017-12-27T09:15:28.890Z,13968.00
2017-12-27T09:16:28.840Z,14140.00
2017-12-27T09:18:22.157Z,14384.00
2017-12-27T09:19:21.794Z,14488.00
2017-12-27T09:21:15.343Z,14756.00
2017-12-27T09:22:15.245Z,14920.00
2017-12-27T09:24:08.314Z,15148.00
2017-12-27T09:25:08.233Z,15224.00
2017-12-27T09:27:01.735Z,15452.00
2017-12-27T09:28:01.686Z,15696.00
2017-12-27T09:29:54.965Z,16804.00
2017-12-27T09:30:54.647Z,17856.00
2017-12-27T09:32:49.426Z,19328.00
2017-12-27T09:33:49.200Z,19296.00
2017-12-27T09:35:43.045Z,17824.00
2017-12-27T09:36:42.593Z,17216.00
2017-12-27T09:38:35.919Z,16708.00
2017-12-27T09:39:35.564Z,17040.00
2017-12-27T09:41:29.113Z,16524.00
2017-12-27T09:42:29.027Z,17248.00
2017-12-27T09:44:22.306Z,20640.00
2017-12-27T09:45:22.265Z,23232.00
2017-12-27T09:47:16.571Z,24896.00
2017-12-27T09:48:16.553Z,27392.00
2017-12-27T09:50:09.736Z,32160.00
2017-12-27T09:51:09.418Z,35328.00
2017-12-27T09:53:02.765Z,31808.00
2017-12-27T09:54:02.710Z,30080.00
2017-12-27T09:55:57.328Z,27200.00
2017-12-27T09:56:57.206Z,39616.00
2017-12-27T09:58:50.767Z,39456.00
2017-12-27T09:59:50.661Z,36128.00
2017-12-27T10:01:43.770Z,32928.00
2017-12-27T10:02:43.406Z,34336.00
2017-12-27T10:04:36.833Z,34624.00
2017-12-27T10:05:36.569Z,35712.00
2017-12-27T10:07:33.643Z,37568.00
2017-12-27T10:08:31.333Z,38144.00
2017-12-27T10:10:24.246Z,40352.00
2017-12-27T10:11:24.092Z,39040.00
2017-12-27T10:13:17.741Z,41056.00
2017-12-27T10:14:17.998Z,37472.00
2017-12-27T10:16:11.165Z,42880.00
2017-12-27T10:17:10.751Z,43456.00
2017-12-27T10:19:04.126Z,38912.00
2017-12-27T10:20:04.096Z,34592.00
2017-12-27T10:21:58.770Z,24992.00
2017-12-27T10:22:58.421Z,28704.00
2017-12-27T10:24:51.810Z,28096.00
2017-12-27T10:25:51.424Z,26528.00
2017-12-27T10:27:44.882Z,20576.00
2017-12-27T10:28:44.600Z,19968.00
2017-12-27T10:30:39.477Z,17792.00
2017-12-27T10:31:39.155Z,16188.00
2017-12-27T10:32:39.382Z,15140.00
2017-12-27T10:33:39.021Z,14332.00
2017-12-27T10:34:39.020Z,13860.00
2017-12-27T10:35:38.952Z,13736.00
2017-12-27T10:36:38.990Z,13800.00
2017-12-27T10:37:39.251Z,13784.00
2017-12-27T10:38:39.164Z,13668.00
2017-12-27T10:39:39.128Z,13524.00
2017-12-27T10:40:39.154Z,13444.00
2017-12-27T10:41:38.815Z,13444.00
2017-12-27T10:42:39.077Z,13524.00
2017-12-27T10:43:39.008Z,13560.00
2017-12-27T10:44:38.938Z,13596.00
2017-12-27T10:45:38.617Z,13596.00
2017-12-27T10:46:38.570Z,13460.00
2017-12-27T10:47:38.639Z,13176.00
2017-12-27T10:48:38.511Z,12764.00
2017-12-27T10:49:38.450Z,12352.00
2017-12-27T10:50:38.429Z,12168.00
2017-12-27T10:51:38.414Z,12480.00
2017-12-27T10:52:38.356Z,12768.00
2017-12-27T10:53:38.307Z,13200.00
2017-12-27T10:54:38.268Z,13612.00
2017-12-27T10:55:38.262Z,15832.00
2017-12-27T10:56:38.197Z,17344.00
2017-12-27T10:57:38.182Z,17888.00
2017-12-27T10:58:38.136Z,18624.00
2017-12-27T10:59:38.100Z,21184.00
2017-12-27T11:00:38.060Z,24416.00
2017-12-27T11:01:38.007Z,27040.00
2017-12-27T11:02:37.973Z,28000.00
2017-12-27T11:03:37.958Z,28544.00
2017-12-27T11:04:37.907Z,28704.00
2017-12-27T11:05:37.874Z,30144.00
2017-12-27T11:06:37.817Z,29760.00
2017-12-27T11:07:37.806Z,30976.00
2017-12-27T11:08:37.753Z,31104.00
2017-12-27T11:09:37.733Z,23424.00
2017-12-27T11:10:37.655Z,20480.00
2017-12-27T11:11:37.646Z,19008.00
2017-12-27T11:12:37.642Z,18528.00
2017-12-27T11:13:37.548Z,19264.00
2017-12-27T11:14:37.510Z,20608.00
2017-12-27T11:15:37.485Z,20576.00
2017-12-27T11:16:37.474Z,20672.00
2017-12-27T11:17:37.413Z,20672.00
2017-12-27T11:18:37.372Z,20352.00
2017-12-27T11:19:37.337Z,20224.00
2017-12-27T11:20:37.316Z,20128.00
2017-12-27T11:21:37.289Z,20256.00
2017-12-27T11:22:37.248Z,21056.00
2017-12-27T11:23:37.199Z,27904.00
2017-12-27T11:24:37.140Z,22208.00
2017-12-27T11:25:37.113Z,25984.00
2017-12-27T11:26:37.075Z,29120.00
2017-12-27T11:27:37.039Z,21536.00
2017-12-27T11:28:37.005Z,19264.00
2017-12-27T11:29:36.977Z,17888.00
2017-12-27T11:30:36.937Z,16476.00
2017-12-27T11:31:36.904Z,15168.00
2017-12-27T11:32:36.856Z,13920.00
2017-12-27T11:33:36.823Z,13012.00
2017-12-27T11:34:36.776Z,12408.00
2017-12-27T11:35:36.726Z,11900.00
2017-12-27T11:36:36.688Z,11424.00
2017-12-27T11:37:36.682Z,10944.00
2017-12-27T11:38:36.649Z,10516.00
2017-12-27T11:39:36.590Z,10204.00
2017-12-27T11:40:36.528Z,10024.00
2017-12-27T11:41:36.512Z,10016.00
2017-12-27T11:42:36.467Z,10264.00
2017-12-27T11:43:36.428Z,10776.00
2017-12-27T11:44:36.380Z,11300.00
2017-12-27T11:45:36.352Z,11640.00
2017-12-27T11:46:36.308Z,11776.00
2017-12-27T11:47:36.292Z,11924.00
2017-12-27T11:48:36.235Z,12180.00
2017-12-27T11:49:36.184Z,12568.00
2017-12-27T11:50:36.152Z,13068.00
2017-12-27T11:51:36.098Z,13644.00
2017-12-27T11:52:36.075Z,14316.00
2017-12-27T11:53:36.039Z,14892.00
2017-12-27T11:54:35.995Z,15272.00
2017-12-27T11:55:35.939Z,15468.00
2017-12-27T11:56:35.911Z,15908.00
2017-12-27T11:57:35.862Z,16616.00
2017-12-27T11:58:35.847Z,17120.00
2017-12-27T11:59:35.775Z,17344.00
2017-12-27T12:00:35.761Z,17052.00
2017-12-27T12:01:35.705Z,16944.00
2017-12-27T12:02:35.671Z,16872.00
2017-12-27T12:03:35.622Z,16668.00
2017-12-27T12:04:35.572Z,16340.00
2017-12-27T12:05:35.529Z,15988.00
2017-12-27T12:06:35.511Z,15488.00
2017-12-27T12:07:35.467Z,14688.00
2017-12-27T12:08:35.425Z,13736.00
2017-12-27T12:09:35.399Z,12812.00
2017-12-27T12:10:35.336Z,11988.00
2017-12-27T12:11:35.299Z,11412.00
2017-12-27T12:12:35.275Z,10904.00
2017-12-27T12:13:35.227Z,10532.00
2017-12-27T12:14:35.219Z,10420.00
2017-12-27T12:15:35.146Z,10496.00
2017-12-27T12:16:35.107Z,10704.00
2017-12-27T12:17:35.060Z,10996.00
2017-12-27T12:18:35.017Z,11332.00
2017-12-27T12:19:34.993Z,11644.00
2017-12-27T12:20:34.945Z,11916.00
2017-12-27T12:21:34.891Z,12124.00
2017-12-27T12:22:34.870Z,12272.00
2017-12-27T12:23:34.885Z,12352.00
2017-12-27T12:24:34.777Z,12376.00
2017-12-27T12:25:34.758Z,12320.00
2017-12-27T12:26:34.718Z,12252.00
2017-12-27T12:27:34.666Z,12200.00
2017-12-27T12:28:34.626Z,12200.00
2017-12-27T12:29:34.597Z,12240.00
2017-12-27T12:30:34.552Z,12332.00
2017-12-27T12:31:34.512Z,12488.00
2017-12-27T12:32:34.524Z,12708.00
2017-12-27T12:33:34.526Z,12940.00
2017-12-27T12:34:34.590Z,13212.00
2017-12-27T12:35:34.390Z,13500.00
2017-12-27T12:36:34.329Z,13828.00
2017-12-27T12:37:34.259Z,14204.00
2017-12-27T12:38:34.226Z,14536.00
2017-12-27T12:39:34.188Z,14880.00
2017-12-27T12:40:34.176Z,15244.00
2017-12-27T12:41:34.100Z,15520.00
2017-12-27T12:42:34.093Z,15520.00
2017-12-27T12:43:34.121Z,15316.00
2017-12-27T12:44:34.107Z,15140.00
2017-12-27T12:45:33.947Z,15136.00
2017-12-27T12:46:33.911Z,15300.00
2017-12-27T12:47:33.909Z,15544.00
2017-12-27T12:48:33.858Z,15724.00
2017-12-27T12:49:33.791Z,15756.00
2017-12-27T12:50:33.734Z,15608.00
2017-12-27T12:51:33.694Z,15304.00
2017-12-27T12:52:33.686Z,14816.00
2017-12-27T12:53:33.626Z,14200.00
2017-12-27T12:54:33.612Z,13528.00
2017-12-27T12:55:33.566Z,12928.00
2017-12-27T12:56:33.519Z,12416.00
2017-12-27T12:57:33.497Z,11976.00
2017-12-27T12:58:33.439Z,11600.00
2017-12-27T12:59:33.404Z,11304.00
2017-12-27T13:00:33.345Z,10992.00
2017-12-27T13:01:33.356Z,10680.00
2017-12-27T13:02:33.254Z,10404.00
2017-12-27T13:03:33.299Z,10212.00
2017-12-27T13:04:33.174Z,10096.00
2017-12-27T13:05:33.175Z,9988.00
2017-12-27T13:06:33.098Z,9896.00
2017-12-27T13:07:33.077Z,9800.00
2017-12-27T13:08:33.043Z,9704.00
2017-12-27T13:09:32.988Z,9644.00
2017-12-27T13:10:32.948Z,9636.00
2017-12-27T13:11:32.942Z,9696.00
2017-12-27T13:12:32.888Z,9832.00
2017-12-27T13:13:32.910Z,9988.00
2017-12-27T13:14:32.774Z,10088.00
2017-12-27T13:15:32.746Z,10132.00
2017-12-27T13:16:32.701Z,10124.00
2017-12-27T13:17:32.648Z,10072.00
2017-12-27T13:18:32.604Z,10008.00
2017-12-27T13:19:32.591Z,9936.00
2017-12-27T13:20:32.540Z,9864.00
2017-12-27T13:21:32.521Z,9792.00
2017-12-27T13:22:32.464Z,9728.00
2017-12-27T13:23:32.414Z,9656.00
2017-12-27T13:24:32.368Z,9572.00
2017-12-27T13:25:32.335Z,9460.00
2017-12-27T13:26:32.280Z,9312.00
2017-12-27T13:27:32.368Z,9168.00
2017-12-27T13:28:32.229Z,9020.00
2017-12-27T13:29:32.173Z,8876.00
2017-12-27T13:30:32.121Z,8728.00
2017-12-27T13:31:32.100Z,8568.00
2017-12-27T13:32:32.090Z,8372.00
2017-12-27T13:33:31.999Z,8160.00
2017-12-27T13:34:31.946Z,7964.00
2017-12-27T13:35:31.933Z,7780.00
2017-12-27T13:36:31.875Z,7680.00
2017-12-27T13:37:31.853Z,7648.00
2017-12-27T13:38:31.785Z,7656.00
2017-12-27T13:39:34.208Z,7724.00
2017-12-27T13:40:31.723Z,7828.00
2017-12-27T13:42:25.462Z,8064.00
2017-12-27T13:43:25.208Z,8156.00
2017-12-27T13:45:19.744Z,8112.00
2017-12-27T13:46:19.908Z,7992.00
2017-12-27T13:48:12.951Z,7708.00
2017-12-27T13:49:12.637Z,7540.00
2017-12-27T13:51:07.390Z,7224.00
2017-12-27T13:52:07.114Z,7044.00
2017-12-27T13:54:00.381Z,6732.00
2017-12-27T13:55:00.073Z,6592.00
2017-12-27T13:56:53.092Z,6340.00
2017-12-27T13:57:53.055Z,6176.00
2017-12-27T13:59:46.608Z,5764.00
2017-12-27T14:00:46.508Z,5528.00
2017-12-27T14:02:41.064Z,5092.00
2017-12-27T14:03:41.007Z,4912.00
2017-12-27T14:04:40.980Z,4792.00
2017-12-27T14:05:41.175Z,4740.00
2017-12-27T14:06:40.847Z,4720.00
2017-12-27T14:07:40.799Z,4704.00
2017-12-27T14:08:40.796Z,4696.00
2017-12-27T14:09:40.731Z,4688.00
2017-12-27T14:10:40.676Z,4656.00
2017-12-27T14:11:40.629Z,4604.00
2017-12-27T14:12:40.603Z,4516.00
2017-12-27T14:13:40.552Z,4408.00
2017-12-27T14:14:40.516Z,4300.00
2017-12-27T14:15:40.501Z,4208.00
2017-12-27T14:16:40.431Z,4116.00
2017-12-27T14:17:40.375Z,4040.00
2017-12-27T14:18:40.337Z,4000.00
2017-12-27T14:19:40.316Z,3992.00
2017-12-27T14:20:40.288Z,4000.00
2017-12-27T14:21:40.213Z,4020.00
2017-12-27T14:22:40.187Z,4068.00
2017-12-27T14:23:40.118Z,4152.00
2017-12-27T14:24:40.072Z,4264.00
2017-12-27T14:25:40.058Z,4368.00
2017-12-27T14:26:39.995Z,4480.00
2017-12-27T14:27:39.963Z,4580.00
2017-12-27T14:28:39.932Z,4636.00
2017-12-27T14:29:39.877Z,4628.00
2017-12-27T14:30:39.855Z,4584.00
2017-12-27T14:31:39.778Z,4520.00
2017-12-27T14:32:39.759Z,4440.00
2017-12-27T14:33:39.707Z,4352.00
2017-12-27T14:34:39.676Z,4244.00
2017-12-27T14:35:39.630Z,4096.00
2017-12-27T14:36:39.577Z,3916.00
2017-12-27T14:37:39.540Z,3704.00
2017-12-27T14:38:39.499Z,3488.00
2017-12-27T14:39:39.459Z,3264.00
2017-12-27T14:40:39.417Z,3044.00
2017-12-27T14:41:39.409Z,2836.00
2017-12-27T14:42:39.375Z,2644.00
2017-12-27T14:43:39.309Z,2468.00
2017-12-27T14:44:39.299Z,2316.00
2017-12-27T14:45:39.194Z,2184.00
2017-12-27T14:46:39.161Z,2060.00
2017-12-27T14:47:39.116Z,1940.00
2017-12-27T14:48:39.104Z,1828.00
2017-12-27T14:49:39.030Z,1720.00
2017-12-27T14:50:38.995Z,1624.00
2017-12-27T14:51:38.955Z,1536.00
2017-12-27T14:52:38.893Z,1456.00
2017-12-27T14:53:38.875Z,1380.00
2017-12-27T14:54:38.832Z,1304.00
2017-12-27T14:55:38.770Z,1232.00
2017-12-27T14:56:38.742Z,1168.00
2017-12-27T14:57:38.695Z,1100.00
2017-12-27T14:58:38.676Z,1040.00
2017-12-27T14:59:38.610Z,976.00
2017-12-27T15:00:38.575Z,920.00
2017-12-27T15:01:38.519Z,868.00
2017-12-27T15:02:38.475Z,816.00
2017-12-27T15:03:38.449Z,764.00
2017-12-27T15:04:38.386Z,716.00
2017-12-27T15:05:38.414Z,672.00
2017-12-27T15:06:38.301Z,628.00
2017-12-27T15:07:38.257Z,588.00
2017-12-27T15:08:38.230Z,548.00
2017-12-27T15:09:38.172Z,512.00
2017-12-27T15:10:38.127Z,476.00
2017-12-27T15:11:38.089Z,444.00
2017-12-27T15:12:38.046Z,412.00
2017-12-27T15:13:38.012Z,384.00
2017-12-27T15:14:37.967Z,352.00
2017-12-27T15:15:37.916Z,324.00
2017-12-27T15:16:37.859Z,300.00
2017-12-27T15:17:37.841Z,268.00
2017-12-27T15:18:37.785Z,248.00
2017-12-27T15:19:37.749Z,220.00
2017-12-27T15:20:37.698Z,200.00
2017-12-27T15:21:37.651Z,176.00
2017-12-27T15:22:37.634Z,160.00
2017-12-27T15:23:37.560Z,140.00
2017-12-27T15:24:37.548Z,124.00
2017-12-27T15:25:37.496Z,112.00
2017-12-27T15:26:37.437Z,96.00
2017-12-27T15:27:37.389Z,84.00
2017-12-27T15:28:37.348Z,76.00
2017-12-27T15:29:37.312Z,64.00
2017-12-27T15:30:37.262Z,56.00
2017-12-27T15:31:37.224Z,48.00
2017-12-27T15:32:37.224Z,40.00
2017-12-27T15:33:37.150Z,36.00
2017-12-27T15:34:41.324Z,28.00
2017-12-27T15:35:37.121Z,24.00
2017-12-27T15:36:37.546Z,24.00
2017-12-27T15:37:37.046Z,16.00
2017-12-27T15:38:37.050Z,16.00
2017-12-27T15:39:36.888Z,16.00
2017-12-27T15:40:36.816Z,8.00
2017-12-27T15:41:36.816Z,8.00
2017-12-27T15:42:36.729Z,8.00
2017-12-27T15:43:36.692Z,4.00
2017-12-27T15:44:36.652Z,8.00
2017-12-27T15:45:36.620Z,4.00
2017-12-27T15:46:36.554Z,4.00